createdAt,value
2023-05-21T00:00:30.383Z,3.30
2023-05-21T00:02:59.482Z,3.70
2023-05-21T00:05:26.916Z,3.38
2023-05-21T00:07:55.008Z,3.15
2023-05-21T00:10:22.399Z,4.30
2023-05-21T00:12:49.832Z,3.55
2023-05-21T00:15:16.945Z,3.70
2023-05-21T00:17:44.619Z,3.45
2023-05-21T00:20:13.136Z,3.95
2023-05-21T00:22:42.439Z,3.95
2023-05-21T00:25:11.817Z,4.00
2023-05-21T00:27:38.938Z,3.90
2023-05-21T00:30:07.108Z,3.95
2023-05-21T00:32:34.606Z,4.50
2023-05-21T00:35:01.755Z,4.00
2023-05-21T00:37:33.011Z,3.92
2023-05-21T00:40:01.797Z,4.32
2023-05-21T00:42:30.627Z,4.20
2023-05-21T00:44:57.961Z,3.80
2023-05-21T00:47:27.042Z,4.10
2023-05-21T00:49:54.548Z,3.67
2023-05-21T00:52:23.114Z,4.53
2023-05-21T00:54:51.135Z,3.85
2023-05-21T00:57:23.323Z,3.92
2023-05-21T00:59:53.183Z,4.63
2023-05-21T01:02:20.586Z,3.97
2023-05-21T01:04:48.008Z,4.25
2023-05-21T01:07:15.108Z,3.90
2023-05-21T01:09:43.254Z,3.60
2023-05-21T01:12:11.562Z,4.20
2023-05-21T01:14:40.019Z,3.70
2023-05-21T01:17:10.408Z,4.20
2023-05-21T01:19:38.294Z,3.72
2023-05-21T01:22:08.211Z,3.67
2023-05-21T01:24:37.873Z,4.15
2023-05-21T01:27:07.838Z,3.97
2023-05-21T01:29:34.988Z,4.38
2023-05-21T01:32:14.050Z,4.15
2023-05-21T01:35:02.838Z,3.83
2023-05-21T01:38:03.868Z,4.80
2023-05-21T01:40:38.341Z,4.82
2023-05-21T01:43:07.708Z,4.50
2023-05-21T01:45:39.520Z,4.28
2023-05-21T01:48:09.065Z,4.43
2023-05-21T01:50:39.375Z,3.85
2023-05-21T01:53:06.495Z,3.97
2023-05-21T01:55:34.112Z,3.88
2023-05-21T01:58:02.496Z,4.00
2023-05-21T02:00:30.905Z,4.60
2023-05-21T02:02:58.785Z,4.47
2023-05-21T02:05:26.219Z,4.57
2023-05-21T02:07:53.396Z,4.05
2023-05-21T02:10:20.658Z,4.32
2023-05-21T02:12:47.978Z,4.28
2023-05-21T02:15:17.927Z,4.50
2023-05-21T02:17:46.561Z,4.75
2023-05-21T02:20:14.568Z,4.30
2023-05-21T02:22:45.109Z,4.72
2023-05-21T02:25:15.893Z,3.97
2023-05-21T02:27:44.526Z,5.47
2023-05-21T02:30:13.738Z,4.53
2023-05-21T02:32:43.154Z,4.13
2023-05-21T02:35:12.560Z,4.38
2023-05-21T02:37:40.693Z,4.40
2023-05-21T02:40:10.185Z,4.07
2023-05-21T02:42:40.183Z,4.15
2023-05-21T02:45:13.571Z,3.83
2023-05-21T02:47:41.186Z,4.07
2023-05-21T02:50:09.689Z,4.32
2023-05-21T02:52:36.720Z,4.00
2023-05-21T02:55:04.153Z,4.20
2023-05-21T02:57:31.251Z,4.30
2023-05-21T02:59:58.284Z,4.20
2023-05-21T03:02:25.394Z,3.67
2023-05-21T03:04:52.502Z,3.85
2023-05-21T03:07:20.022Z,4.15
2023-05-21T03:09:47.437Z,3.85
2023-05-21T03:12:14.571Z,3.72
2023-05-21T03:14:46.440Z,3.60
2023-05-21T03:17:17.462Z,4.00
2023-05-21T03:19:45.151Z,3.78
2023-05-21T03:22:12.319Z,3.97
2023-05-21T03:24:41.376Z,3.10
2023-05-21T03:27:08.526Z,3.85
2023-05-21T03:29:36.173Z,3.90
2023-05-21T03:32:03.581Z,4.13
2023-05-21T03:34:31.251Z,3.92
2023-05-21T03:36:58.416Z,3.97
2023-05-21T03:39:25.546Z,4.45
2023-05-21T03:41:52.635Z,4.18
2023-05-21T03:44:19.695Z,3.70
2023-05-21T03:46:46.912Z,3.80
2023-05-21T03:49:14.736Z,4.25
2023-05-21T03:51:41.777Z,4.00
2023-05-21T03:54:08.890Z,3.97
2023-05-21T03:56:35.975Z,4.20
2023-05-21T03:59:03.053Z,3.78
2023-05-21T04:01:30.755Z,3.53
2023-05-21T04:03:57.950Z,4.30
2023-05-21T04:06:25.238Z,4.03
2023-05-21T04:08:52.400Z,4.45
2023-05-21T04:11:19.441Z,4.32
2023-05-21T04:13:48.163Z,3.92
2023-05-21T04:16:19.291Z,3.70
2023-05-21T04:18:47.536Z,4.63
2023-05-21T04:21:14.704Z,3.92
2023-05-21T04:23:41.843Z,3.58
2023-05-21T04:26:08.900Z,3.72
2023-05-21T04:28:36.425Z,4.40
2023-05-21T04:31:03.531Z,4.22
2023-05-21T04:33:30.592Z,4.15
2023-05-21T04:35:59.047Z,4.50
2023-05-21T04:38:26.106Z,4.32
2023-05-21T04:40:53.618Z,4.13
2023-05-21T04:43:26.540Z,4.05
2023-05-21T04:45:57.199Z,4.03
2023-05-21T04:48:25.623Z,4.35
2023-05-21T04:50:53.709Z,3.72
2023-05-21T04:53:20.916Z,3.80
2023-05-21T04:55:48.184Z,4.15
2023-05-21T04:58:18.380Z,4.45
2023-05-21T05:00:50.766Z,3.88
2023-05-21T05:03:18.158Z,4.50
2023-05-21T05:05:45.911Z,4.03
2023-05-21T05:08:15.812Z,4.30
2023-05-21T05:10:43.337Z,3.97
2023-05-21T05:13:10.581Z,5.00
2023-05-21T05:15:37.890Z,4.30
2023-05-21T05:18:06.619Z,4.50
2023-05-21T05:20:33.693Z,4.10
2023-05-21T05:23:00.865Z,4.22
2023-05-21T05:25:27.883Z,4.57
2023-05-21T05:27:54.925Z,4.50
2023-05-21T05:30:22.018Z,3.97
2023-05-21T05:32:49.088Z,4.47
2023-05-21T05:35:16.180Z,4.35
2023-05-21T05:37:43.265Z,4.38
2023-05-21T05:40:11.044Z,4.40
2023-05-21T05:42:38.092Z,4.68
2023-05-21T05:45:05.883Z,4.60
2023-05-21T05:47:33.097Z,4.55
2023-05-21T05:50:00.204Z,4.35
2023-05-21T05:52:27.309Z,4.68
2023-05-21T05:54:54.376Z,5.03
2023-05-21T05:57:21.399Z,4.53
2023-05-21T05:59:48.541Z,4.72
2023-05-21T06:02:15.965Z,4.80
2023-05-21T06:04:43.376Z,5.10
2023-05-21T06:07:11.518Z,4.90
2023-05-21T06:09:39.074Z,4.75
2023-05-21T06:12:07.628Z,5.70
2023-05-21T06:14:34.992Z,5.25
2023-05-21T06:17:02.084Z,4.72
2023-05-21T06:19:29.290Z,4.82
2023-05-21T06:21:56.455Z,6.10
2023-05-21T06:24:23.578Z,4.88
2023-05-21T06:26:50.776Z,5.63
2023-05-21T06:29:18.151Z,5.45
2023-05-21T06:31:45.208Z,5.53
2023-05-21T06:34:12.422Z,5.53
2023-05-21T06:36:39.699Z,5.45
2023-05-21T06:39:06.963Z,5.93
2023-05-21T06:41:34.139Z,5.43
2023-05-21T06:44:01.494Z,6.28
2023-05-21T06:46:28.654Z,6.18
2023-05-21T06:48:56.138Z,5.93
2023-05-21T06:51:23.241Z,5.30
2023-05-21T06:53:51.047Z,5.78
2023-05-21T06:56:18.529Z,5.78
2023-05-21T06:58:45.955Z,6.15
2023-05-21T07:01:13.089Z,5.38
2023-05-21T07:03:40.386Z,5.20
2023-05-21T07:06:07.733Z,5.68
2023-05-21T07:08:34.959Z,5.63
2023-05-21T07:11:02.208Z,5.65
2023-05-21T07:13:30.194Z,5.82
2023-05-21T07:15:57.389Z,5.15
2023-05-21T07:18:24.425Z,5.78
2023-05-21T07:20:51.500Z,5.45
2023-05-21T07:23:18.571Z,6.03
2023-05-21T07:25:45.678Z,6.25
2023-05-21T07:28:12.844Z,6.20
2023-05-21T07:30:39.930Z,6.22
2023-05-21T07:33:07.183Z,5.75
2023-05-21T07:35:34.456Z,5.78
2023-05-21T07:38:01.642Z,6.95
2023-05-21T07:40:28.803Z,6.10
2023-05-21T07:42:56.331Z,5.72
2023-05-21T07:45:23.433Z,6.38
2023-05-21T07:47:50.839Z,5.97
2023-05-21T07:50:18.120Z,6.88
2023-05-21T07:52:45.204Z,6.22
2023-05-21T07:55:12.529Z,6.22
2023-05-21T07:57:39.739Z,6.63
2023-05-21T08:00:09.690Z,7.10
2023-05-21T08:02:37.365Z,6.47
2023-05-21T08:05:05.055Z,6.05
2023-05-21T08:07:32.666Z,6.75
2023-05-21T08:10:01.074Z,6.40
2023-05-21T08:12:29.682Z,6.05
2023-05-21T08:14:59.287Z,6.38
2023-05-21T08:17:28.433Z,7.18
2023-05-21T08:19:55.514Z,6.78
2023-05-21T08:22:22.692Z,7.55
2023-05-21T08:24:49.895Z,6.47
2023-05-21T08:27:16.852Z,6.68
2023-05-21T08:29:44.417Z,6.63
2023-05-21T08:32:11.625Z,7.22
2023-05-21T08:34:39.157Z,7.00
2023-05-21T08:37:06.217Z,7.07
2023-05-21T08:39:33.166Z,7.78
2023-05-21T08:42:22.580Z,6.90
2023-05-21T08:45:01.071Z,7.28
2023-05-21T08:47:34.371Z,7.55
2023-05-21T08:50:04.520Z,7.68
2023-05-21T08:52:34.912Z,7.70
2023-05-21T08:55:06.431Z,7.90
2023-05-21T08:57:33.655Z,7.60
2023-05-21T09:00:01.995Z,8.48
2023-05-21T09:02:34.343Z,8.00
2023-05-21T09:05:03.602Z,8.35
2023-05-21T09:07:34.341Z,7.82
2023-05-21T09:10:08.822Z,8.40
2023-05-21T09:12:36.569Z,7.63
2023-05-21T09:15:04.541Z,7.85
2023-05-21T09:17:31.879Z,7.93
2023-05-21T09:20:14.783Z,7.93
2023-05-21T09:22:47.708Z,8.73
2023-05-21T09:25:18.098Z,7.85
2023-05-21T09:27:45.390Z,8.07
2023-05-21T09:30:17.871Z,7.75
2023-05-21T09:32:46.321Z,8.57
2023-05-21T09:35:16.429Z,8.15
2023-05-21T09:37:47.560Z,9.02
2023-05-21T09:40:20.730Z,8.45
2023-05-21T09:42:50.577Z,8.65
2023-05-21T09:45:25.519Z,8.45
2023-05-21T09:47:56.131Z,8.38
2023-05-21T09:50:31.575Z,8.60
2023-05-21T09:52:58.820Z,8.40
2023-05-21T09:55:27.067Z,8.75
2023-05-21T09:57:54.428Z,8.77
2023-05-21T10:00:27.995Z,8.18
2023-05-21T10:02:58.114Z,8.60
2023-05-21T10:05:28.306Z,8.82
2023-05-21T10:08:02.533Z,8.55
2023-05-21T10:10:31.969Z,8.13
2023-05-21T10:13:09.032Z,8.40
2023-05-21T10:15:45.593Z,8.35
2023-05-21T10:18:14.038Z,8.55
2023-05-21T10:20:43.618Z,9.50
2023-05-21T10:23:11.213Z,9.05
2023-05-21T10:25:38.373Z,9.52
2023-05-21T10:28:07.128Z,9.55
2023-05-21T10:30:36.362Z,9.35
2023-05-21T10:33:05.723Z,9.68
2023-05-21T10:35:34.536Z,9.07
2023-05-21T10:38:05.146Z,9.93
2023-05-21T10:40:32.381Z,9.45
2023-05-21T10:43:20.718Z,9.75
2023-05-21T10:46:40.601Z,10.25
2023-05-21T10:49:16.281Z,9.88
2023-05-21T10:51:48.813Z,10.45
2023-05-21T10:54:44.439Z,10.70
2023-05-21T10:57:47.253Z,8.60
2023-05-21T11:00:18.341Z,10.18
2023-05-21T11:02:46.142Z,9.68
2023-05-21T11:05:14.357Z,10.02
2023-05-21T11:07:57.662Z,10.52
2023-05-21T11:10:41.115Z,10.40
2023-05-21T11:13:14.385Z,9.60
2023-05-21T11:15:59.805Z,10.82
2023-05-21T11:18:35.891Z,10.43
2023-05-21T11:21:22.667Z,10.73
2023-05-21T11:24:02.434Z,10.60
2023-05-21T11:26:52.578Z,10.07
2023-05-21T11:29:47.309Z,11.68
2023-05-21T11:32:15.726Z,10.68
2023-05-21T11:34:47.889Z,10.65
2023-05-21T11:37:23.133Z,11.18
2023-05-21T11:39:51.586Z,11.05
2023-05-21T11:42:33.518Z,11.90
2023-05-21T11:45:02.989Z,11.20
2023-05-21T11:47:32.219Z,11.63
2023-05-21T11:50:02.279Z,10.93
2023-05-21T11:52:31.742Z,12.00
2023-05-21T11:54:59.987Z,11.88
2023-05-21T11:57:32.194Z,11.40
2023-05-21T12:00:02.405Z,12.52
2023-05-21T12:02:33.426Z,12.25
2023-05-21T12:05:03.965Z,11.40
2023-05-21T12:07:31.428Z,12.20
2023-05-21T12:09:58.808Z,11.77
2023-05-21T12:12:33.078Z,10.98
2023-05-21T12:15:10.389Z,11.35
2023-05-21T12:17:37.698Z,11.20
2023-05-21T12:20:08.210Z,10.63
2023-05-21T12:22:40.733Z,11.75
2023-05-21T12:25:08.647Z,11.65
2023-05-21T12:27:37.204Z,11.82
2023-05-21T12:30:05.045Z,11.40
2023-05-21T12:32:32.466Z,10.98
2023-05-21T12:34:59.589Z,11.60
2023-05-21T12:37:35.561Z,11.90
2023-05-21T12:40:12.027Z,12.68
2023-05-21T12:42:40.234Z,12.35
2023-05-21T12:45:08.988Z,11.07
2023-05-21T12:47:36.828Z,11.40
2023-05-21T12:50:11.696Z,11.43
2023-05-21T12:52:43.191Z,12.02
2023-05-21T12:55:14.966Z,11.48
2023-05-21T12:57:43.906Z,11.13
2023-05-21T13:00:12.065Z,11.55
2023-05-21T13:02:41.314Z,10.68
2023-05-21T13:05:11.516Z,11.15
2023-05-21T13:07:41.003Z,11.25
2023-05-21T13:10:09.038Z,10.77
2023-05-21T13:12:36.634Z,11.93
2023-05-21T13:15:09.211Z,10.55
2023-05-21T13:17:36.339Z,11.65
2023-05-21T13:20:16.494Z,11.48
2023-05-21T13:22:50.011Z,12.30
2023-05-21T13:25:21.215Z,11.40
2023-05-21T13:27:53.664Z,11.70
2023-05-21T13:30:22.527Z,11.02
2023-05-21T13:32:49.744Z,11.73
2023-05-21T13:35:17.532Z,11.75
2023-05-21T13:37:45.422Z,11.25
2023-05-21T13:40:15.778Z,11.25
2023-05-21T13:42:45.126Z,11.50
2023-05-21T13:45:15.653Z,11.25
2023-05-21T13:47:44.369Z,11.88
2023-05-21T13:50:12.004Z,12.07
2023-05-21T13:52:39.334Z,11.40
2023-05-21T13:55:07.404Z,11.00
2023-05-21T13:57:34.671Z,12.13
2023-05-21T14:00:01.994Z,11.43
2023-05-21T14:02:29.528Z,11.40
2023-05-21T14:04:57.320Z,10.35
2023-05-21T14:07:24.404Z,11.05
2023-05-21T14:09:52.385Z,11.93
2023-05-21T14:12:19.549Z,10.65
2023-05-21T14:14:49.684Z,11.30
2023-05-21T14:17:18.282Z,11.18
2023-05-21T14:19:45.325Z,10.57
2023-05-21T14:22:12.419Z,11.73
2023-05-21T14:24:39.604Z,11.55
2023-05-21T14:27:06.878Z,10.90
2023-05-21T14:29:33.877Z,11.80
2023-05-21T14:32:01.016Z,11.30
2023-05-21T14:34:28.189Z,11.32
2023-05-21T14:36:55.311Z,10.23
2023-05-21T14:39:22.389Z,10.68
2023-05-21T14:41:51.332Z,10.48
2023-05-21T14:44:18.420Z,11.18
2023-05-21T14:46:45.502Z,10.68
2023-05-21T14:49:13.265Z,9.93
2023-05-21T14:51:40.844Z,9.77
2023-05-21T14:54:07.870Z,10.90
2023-05-21T14:56:34.890Z,10.05
2023-05-21T14:59:01.940Z,10.32
2023-05-21T15:01:29.029Z,9.65
2023-05-21T15:03:58.432Z,9.77
2023-05-21T15:06:25.588Z,10.68
2023-05-21T15:08:52.757Z,9.32
2023-05-21T15:11:19.826Z,9.65
2023-05-21T15:13:46.905Z,10.55
2023-05-21T15:16:14.132Z,10.38
2023-05-21T15:18:41.146Z,10.25
2023-05-21T15:21:08.750Z,11.38
2023-05-21T15:23:35.736Z,11.13
2023-05-21T15:26:02.806Z,10.57
2023-05-21T15:28:29.835Z,10.35
2023-05-21T15:30:56.966Z,9.73
2023-05-21T15:33:24.048Z,9.20
2023-05-21T15:35:51.251Z,9.88
2023-05-21T15:38:18.397Z,10.38
2023-05-21T15:40:45.488Z,9.88
2023-05-21T15:43:12.515Z,9.52
2023-05-21T15:45:39.686Z,9.65
2023-05-21T15:48:07.391Z,10.18
2023-05-21T15:50:35.800Z,9.82
2023-05-21T15:53:04.776Z,9.38
2023-05-21T15:55:35.059Z,10.60
2023-05-21T15:58:03.745Z,9.85
2023-05-21T16:00:30.782Z,11.10
2023-05-21T16:02:58.124Z,11.27
2023-05-21T16:05:26.090Z,10.02
2023-05-21T16:07:53.171Z,9.55
2023-05-21T16:10:23.774Z,9.02
2023-05-21T16:12:51.142Z,9.82
2023-05-21T16:15:18.226Z,10.02
2023-05-21T16:17:45.467Z,9.30
2023-05-21T16:20:13.124Z,9.88
2023-05-21T16:22:40.670Z,9.90
2023-05-21T16:25:08.725Z,9.75
2023-05-21T16:27:36.272Z,9.73
2023-05-21T16:30:04.156Z,10.25
2023-05-21T16:32:31.237Z,9.95
2023-05-21T16:34:58.421Z,9.68
2023-05-21T16:37:27.094Z,9.75
2023-05-21T16:39:54.315Z,9.45
2023-05-21T16:42:21.424Z,10.05
2023-05-21T16:44:48.690Z,9.70
2023-05-21T16:47:15.965Z,10.07
2023-05-21T16:49:42.971Z,10.35
2023-05-21T16:52:10.126Z,9.60
2023-05-21T16:54:37.393Z,10.07
2023-05-21T16:57:04.604Z,9.65
2023-05-21T16:59:31.783Z,9.48
2023-05-21T17:01:59.084Z,9.38
2023-05-21T17:04:26.494Z,9.75
2023-05-21T17:06:53.576Z,10.23
2023-05-21T17:09:20.794Z,9.73
2023-05-21T17:11:47.874Z,9.77
2023-05-21T17:14:23.332Z,9.77
2023-05-21T17:17:00.022Z,10.40
2023-05-21T17:19:27.261Z,9.50
2023-05-21T17:21:57.617Z,9.70
2023-05-21T17:24:25.257Z,9.35
2023-05-21T17:26:53.845Z,10.07
2023-05-21T17:29:23.260Z,9.70
2023-05-21T17:31:50.407Z,9.63
2023-05-21T17:34:18.032Z,9.30
2023-05-21T17:36:45.184Z,9.32
2023-05-21T17:39:12.573Z,9.90
2023-05-21T17:41:39.796Z,9.85
2023-05-21T17:44:06.833Z,9.02
2023-05-21T17:46:34.314Z,9.65
2023-05-21T17:49:02.600Z,10.15
2023-05-21T17:51:29.619Z,8.93
2023-05-21T17:53:56.660Z,9.73
2023-05-21T17:56:23.767Z,9.93
2023-05-21T17:58:51.396Z,10.13
2023-05-21T18:01:19.506Z,10.57
2023-05-21T18:03:47.129Z,9.77
2023-05-21T18:06:14.392Z,9.20
2023-05-21T18:08:41.591Z,10.27
2023-05-21T18:11:10.509Z,9.43
2023-05-21T18:13:37.727Z,9.85
2023-05-21T18:16:05.889Z,10.45
2023-05-21T18:18:33.044Z,10.52
2023-05-21T18:21:00.381Z,9.18
2023-05-21T18:23:28.871Z,10.73
2023-05-21T18:25:56.562Z,9.82
2023-05-21T18:28:23.762Z,10.43
2023-05-21T18:30:50.938Z,9.60
2023-05-21T18:33:18.025Z,9.50
2023-05-21T18:35:45.226Z,9.75
2023-05-21T18:38:12.987Z,10.20
2023-05-21T18:40:40.081Z,10.00
2023-05-21T18:43:07.207Z,9.38
2023-05-21T18:45:34.658Z,10.48
2023-05-21T18:48:03.166Z,10.50
2023-05-21T18:50:31.786Z,9.52
2023-05-21T18:52:59.044Z,10.57
2023-05-21T18:55:26.481Z,10.43
2023-05-21T18:57:55.633Z,10.63
2023-05-21T19:00:23.102Z,10.63
2023-05-21T19:02:50.161Z,10.23
2023-05-21T19:05:17.559Z,10.60
2023-05-21T19:07:44.796Z,10.75
2023-05-21T19:10:12.631Z,11.45
2023-05-21T19:12:41.881Z,10.50
2023-05-21T19:15:10.035Z,10.80
2023-05-21T19:17:39.089Z,11.00
2023-05-21T19:20:10.458Z,10.45
2023-05-21T19:22:37.828Z,11.40
2023-05-21T19:25:05.487Z,10.18
2023-05-21T19:27:32.595Z,10.95
2023-05-21T19:29:59.666Z,11.00
2023-05-21T19:32:26.798Z,10.68
2023-05-21T19:34:53.807Z,10.27
2023-05-21T19:37:20.894Z,9.93
2023-05-21T19:39:50.017Z,9.23
2023-05-21T19:42:21.380Z,7.90
2023-05-21T19:44:48.685Z,7.65
2023-05-21T19:47:15.823Z,7.10
2023-05-21T19:49:43.090Z,6.55
2023-05-21T19:52:10.540Z,7.40
2023-05-21T19:54:37.642Z,6.90
2023-05-21T19:57:05.084Z,7.25
2023-05-21T19:59:32.188Z,6.80
2023-05-21T20:01:59.385Z,6.32
2023-05-21T20:04:26.781Z,6.78
2023-05-21T20:06:53.970Z,6.75
2023-05-21T20:09:21.205Z,6.68
2023-05-21T20:11:48.354Z,6.90
2023-05-21T20:14:15.560Z,7.03
2023-05-21T20:16:42.785Z,7.32
2023-05-21T20:19:10.868Z,6.57
2023-05-21T20:21:38.072Z,6.72
2023-05-21T20:24:05.808Z,6.82
2023-05-21T20:26:35.303Z,6.90
2023-05-21T20:29:02.426Z,6.88
2023-05-21T20:31:29.714Z,6.72
2023-05-21T20:33:56.867Z,6.65
2023-05-21T20:36:26.266Z,6.43
2023-05-21T20:38:53.330Z,6.45
2023-05-21T20:41:20.365Z,6.93
2023-05-21T20:43:47.667Z,6.38
2023-05-21T20:46:17.489Z,6.65
2023-05-21T20:48:44.701Z,6.38
2023-05-21T20:51:12.223Z,5.78
2023-05-21T20:53:39.194Z,5.63
2023-05-21T20:56:08.040Z,5.93
2023-05-21T20:58:36.599Z,5.75
2023-05-21T21:01:03.694Z,6.85
2023-05-21T21:03:33.896Z,5.70
2023-05-21T21:06:01.246Z,5.90
2023-05-21T21:08:28.268Z,5.35
2023-05-21T21:10:55.316Z,5.65
2023-05-21T21:13:22.324Z,6.38
2023-05-21T21:15:49.408Z,5.95
2023-05-21T21:18:16.840Z,5.60
2023-05-21T21:20:49.409Z,5.57
2023-05-21T21:23:16.665Z,6.30
2023-05-21T21:25:43.850Z,5.90
2023-05-21T21:28:11.029Z,5.90
2023-05-21T21:30:41.369Z,5.50
2023-05-21T21:33:08.914Z,6.78
2023-05-21T21:35:36.045Z,6.65
2023-05-21T21:38:04.981Z,6.55
2023-05-21T21:40:32.145Z,6.85
2023-05-21T21:42:59.227Z,6.95
2023-05-21T21:45:26.329Z,6.95
2023-05-21T21:47:53.404Z,6.30
2023-05-21T21:50:20.509Z,7.22
2023-05-21T21:52:48.913Z,7.43
2023-05-21T21:55:16.136Z,6.95
2023-05-21T21:57:43.203Z,7.78
2023-05-21T22:00:20.931Z,7.85
2023-05-21T22:02:48.085Z,8.02
2023-05-21T22:05:15.318Z,7.32
2023-05-21T22:07:46.471Z,8.20
2023-05-21T22:10:17.418Z,8.88
2023-05-21T22:12:46.191Z,9.02
2023-05-21T22:15:28.766Z,8.27
2023-05-21T22:17:56.039Z,8.40
2023-05-21T22:20:23.354Z,9.05
2023-05-21T22:22:50.610Z,8.05
2023-05-21T22:25:17.783Z,8.18
2023-05-21T22:27:45.036Z,9.38
2023-05-21T22:30:12.591Z,9.35
2023-05-21T22:32:39.803Z,9.75
2023-05-21T22:35:07.990Z,9.60
2023-05-21T22:37:37.258Z,9.50
2023-05-21T22:40:09.223Z,9.88
2023-05-21T22:42:36.572Z,9.50
2023-05-21T22:45:04.300Z,10.30
2023-05-21T22:47:32.270Z,9.18
2023-05-21T22:50:00.726Z,10.55
2023-05-21T22:52:28.761Z,9.85
2023-05-21T22:54:57.863Z,10.65
2023-05-21T22:57:24.968Z,10.52
2023-05-21T22:59:51.946Z,10.90
2023-05-21T23:02:19.151Z,10.80
2023-05-21T23:04:46.443Z,10.98
2023-05-21T23:07:13.664Z,10.88
2023-05-21T23:09:41.083Z,10.95
2023-05-21T23:12:10.044Z,11.27
2023-05-21T23:14:37.037Z,12.20
2023-05-21T23:17:04.525Z,12.48
2023-05-21T23:19:32.974Z,11.18
2023-05-21T23:22:00.479Z,12.13
2023-05-21T23:24:29.356Z,11.13
2023-05-21T23:27:01.698Z,11.65
2023-05-21T23:29:30.370Z,11.52
2023-05-21T23:31:57.879Z,11.98
2023-05-21T23:34:25.588Z,11.13
2023-05-21T23:36:52.941Z,12.32
2023-05-21T23:39:20.000Z,12.07
2023-05-21T23:41:47.241Z,12.05
2023-05-21T23:44:15.423Z,13.15
2023-05-21T23:46:45.709Z,12.80
2023-05-21T23:49:12.784Z,13.18
2023-05-21T23:51:40.091Z,12.27
2023-05-21T23:54:08.125Z,12.05
2023-05-21T23:56:35.269Z,11.30
2023-05-21T23:59:02.313Z,13.30
